createdAt,value
2022-10-23T00:02:04.871Z,4.80
2022-10-23T00:04:34.119Z,3.45
2022-10-23T00:07:05.596Z,1.65
2022-10-23T00:09:37.412Z,1.52
2022-10-23T00:12:06.620Z,2.67
2022-10-23T00:14:36.010Z,1.77
2022-10-23T00:17:05.571Z,2.08
2022-10-23T00:19:34.520Z,1.92
2022-10-23T00:22:04.739Z,1.60
2022-10-23T00:24:34.100Z,3.67
2022-10-23T00:27:04.943Z,3.10
2022-10-23T00:29:40.036Z,9.05
2022-10-23T00:32:11.764Z,7.68
2022-10-23T00:34:41.582Z,8.02
2022-10-23T00:37:10.855Z,6.72
2022-10-23T00:39:40.220Z,5.53
2022-10-23T00:42:11.417Z,5.15
2022-10-23T00:44:43.422Z,4.38
2022-10-23T00:47:14.312Z,3.90
2022-10-23T00:49:43.557Z,5.80
2022-10-23T00:52:14.709Z,4.40
2022-10-23T00:54:44.926Z,6.00
2022-10-23T00:57:18.729Z,5.10
2022-10-23T00:59:56.933Z,3.72
2022-10-23T01:02:26.218Z,4.70
2022-10-23T01:04:55.452Z,3.95
2022-10-23T01:07:43.285Z,3.40
2022-10-23T01:10:38.171Z,3.85
2022-10-23T01:13:30.978Z,6.55
2022-10-23T01:16:15.099Z,1.98
2022-10-23T01:18:57.497Z,2.47
2022-10-23T01:21:32.354Z,2.95
2022-10-23T01:24:26.753Z,2.40
2022-10-23T01:27:26.693Z,3.85
2022-10-23T01:30:12.679Z,3.58
2022-10-23T01:32:55.076Z,1.67
2022-10-23T01:35:32.427Z,1.95
2022-10-23T01:38:15.803Z,1.73
2022-10-23T01:40:58.790Z,7.95
2022-10-23T01:43:33.756Z,7.63
2022-10-23T01:46:07.789Z,5.10
2022-10-23T01:48:39.654Z,2.67
2022-10-23T01:51:12.342Z,2.35
2022-10-23T01:53:44.622Z,2.90
2022-10-23T01:56:24.185Z,2.53
2022-10-23T01:58:59.441Z,6.55
2022-10-23T02:01:34.655Z,2.28
2022-10-23T02:04:11.603Z,2.28
2022-10-23T02:09:09.700Z,4.32
2022-10-23T02:11:56.458Z,2.70
2022-10-23T02:15:09.701Z,4.90
2022-10-23T02:17:47.920Z,3.30
2022-10-23T02:20:23.560Z,4.60
2022-10-23T02:23:05.547Z,7.35
2022-10-23T02:25:58.144Z,4.53
2022-10-23T02:28:51.692Z,4.07
2022-10-23T02:31:23.892Z,4.90
2022-10-23T02:33:53.295Z,4.93
2022-10-23T02:36:22.421Z,4.38
2022-10-23T02:38:51.665Z,8.65
2022-10-23T02:41:50.267Z,6.28
2022-10-23T02:44:41.012Z,3.55
2022-10-23T02:47:37.325Z,3.55
2022-10-23T02:50:17.915Z,3.42
2022-10-23T02:53:03.399Z,3.72
2022-10-23T02:56:04.519Z,3.42
2022-10-23T02:58:50.570Z,8.65
2022-10-23T03:01:24.903Z,6.05
2022-10-23T03:03:58.261Z,8.57
2022-10-23T03:06:27.786Z,10.23
2022-10-23T03:09:06.284Z,13.32
2022-10-23T03:11:35.838Z,7.35
2022-10-23T03:14:08.358Z,9.38
2022-10-23T03:16:37.605Z,8.05
2022-10-23T03:19:07.312Z,6.95
2022-10-23T03:21:36.537Z,7.70
2022-10-23T03:24:09.846Z,3.92
2022-10-23T03:26:43.687Z,3.47
2022-10-23T03:29:12.859Z,6.45
2022-10-23T03:31:45.335Z,2.38
2022-10-23T03:34:15.903Z,2.33
2022-10-23T03:36:45.140Z,2.38
2022-10-23T03:39:14.483Z,3.53
2022-10-23T03:41:44.761Z,1.73
2022-10-23T03:44:15.779Z,2.38
2022-10-23T03:46:46.750Z,3.70
2022-10-23T03:49:16.060Z,8.15
2022-10-23T03:51:52.658Z,2.40
2022-10-23T03:54:25.032Z,3.08
2022-10-23T03:56:57.511Z,4.00
2022-10-23T03:59:28.689Z,4.03
2022-10-23T04:01:58.069Z,3.78
2022-10-23T04:04:27.445Z,4.03
2022-10-23T04:06:56.452Z,2.65
2022-10-23T04:09:25.774Z,3.75
2022-10-23T04:11:57.240Z,3.75
2022-10-23T04:14:29.718Z,2.80
2022-10-23T04:16:58.923Z,3.83
2022-10-23T04:19:34.992Z,3.47
2022-10-23T04:22:04.422Z,5.82
2022-10-23T04:24:35.288Z,7.72
2022-10-23T04:27:04.474Z,10.57
2022-10-23T04:29:33.986Z,5.63
2022-10-23T04:32:05.096Z,6.50
2022-10-23T04:34:34.221Z,11.00
2022-10-23T04:37:04.284Z,11.95
2022-10-23T04:39:33.359Z,18.80
2022-10-23T04:42:03.376Z,17.63
2022-10-23T04:44:32.437Z,16.92
2022-10-23T04:47:01.705Z,10.25
2022-10-23T04:49:32.325Z,6.90
2022-10-23T04:52:21.534Z,4.55
2022-10-23T04:55:23.150Z,3.28
2022-10-23T04:58:07.331Z,3.03
2022-10-23T05:00:36.442Z,6.45
2022-10-23T05:03:05.460Z,3.50
2022-10-23T05:05:41.175Z,2.70
2022-10-23T05:08:45.355Z,3.83
2022-10-23T05:11:42.781Z,4.88
2022-10-23T05:14:11.870Z,7.50
2022-10-23T05:16:44.541Z,2.92
2022-10-23T05:19:23.339Z,3.13
2022-10-23T05:21:56.757Z,2.88
2022-10-23T05:24:38.260Z,2.00
2022-10-23T05:27:10.421Z,4.22
2022-10-23T05:29:42.352Z,2.97
2022-10-23T05:32:13.141Z,2.35
2022-10-23T05:34:43.671Z,3.03
2022-10-23T05:37:15.741Z,3.58
2022-10-23T05:39:45.019Z,3.28
2022-10-23T05:42:16.453Z,7.07
2022-10-23T05:44:45.588Z,8.55
2022-10-23T05:47:34.485Z,15.32
2022-10-23T05:50:29.832Z,17.25
2022-10-23T05:53:21.804Z,11.85
2022-10-23T05:58:55.418Z,4.10
2022-10-23T06:01:47.605Z,2.63
2022-10-23T06:04:21.633Z,2.83
2022-10-23T06:07:10.276Z,4.55
2022-10-23T06:09:40.019Z,2.63
2022-10-23T06:12:10.651Z,3.22
2022-10-23T06:14:44.626Z,3.97
2022-10-23T06:17:14.285Z,5.95
2022-10-23T06:19:47.080Z,9.35
2022-10-23T06:24:53.449Z,12.07
2022-10-23T06:27:26.996Z,11.63
2022-10-23T06:29:57.443Z,10.02
2022-10-23T06:32:26.719Z,6.97
2022-10-23T06:35:08.317Z,4.82
2022-10-23T06:37:37.763Z,4.85
2022-10-23T06:40:27.601Z,11.18
2022-10-23T06:43:01.140Z,15.25
2022-10-23T06:46:05.780Z,11.52
2022-10-23T06:48:53.267Z,9.70
2022-10-23T06:51:30.444Z,6.43
2022-10-23T06:53:59.604Z,6.28
2022-10-23T06:56:46.631Z,6.03
2022-10-23T06:59:20.404Z,6.53
2022-10-23T07:01:52.166Z,4.13
2022-10-23T07:04:21.513Z,3.42
2022-10-23T07:06:51.006Z,4.65
2022-10-23T07:09:26.651Z,7.60
2022-10-23T07:11:55.721Z,5.38
2022-10-23T07:14:40.224Z,3.90
2022-10-23T07:17:09.417Z,9.82
2022-10-23T07:19:40.607Z,4.57
2022-10-23T07:22:18.605Z,3.42
2022-10-23T07:24:57.001Z,3.72
2022-10-23T07:27:39.408Z,3.25
2022-10-23T07:30:11.413Z,5.45
2022-10-23T07:32:47.109Z,8.35
2022-10-23T07:35:34.269Z,8.35
2022-10-23T07:38:14.620Z,5.45
2022-10-23T07:40:47.636Z,2.85
2022-10-23T07:43:21.966Z,2.53
2022-10-23T07:45:51.657Z,4.40
2022-10-23T07:48:40.885Z,4.88
2022-10-23T07:51:14.495Z,4.35
2022-10-23T07:53:49.767Z,4.53
2022-10-23T07:56:32.465Z,3.92
2022-10-23T07:59:16.499Z,5.68
2022-10-23T08:01:55.077Z,7.15
2022-10-23T08:04:31.469Z,6.32
2022-10-23T08:07:07.002Z,8.02
2022-10-23T08:09:41.671Z,4.95
2022-10-23T08:12:11.752Z,4.35
2022-10-23T08:14:41.052Z,4.20
2022-10-23T08:17:10.577Z,4.78
2022-10-23T08:19:57.826Z,5.40
2022-10-23T08:22:31.803Z,8.30
2022-10-23T08:25:01.631Z,4.75
2022-10-23T08:27:31.122Z,7.85
2022-10-23T08:30:00.270Z,8.93
2022-10-23T08:32:31.990Z,7.95
2022-10-23T08:35:04.086Z,9.25
2022-10-23T08:37:34.929Z,4.85
2022-10-23T08:40:06.768Z,2.83
2022-10-23T08:43:19.765Z,4.95
2022-10-23T08:49:21.306Z,6.18
2022-10-23T08:52:23.033Z,4.50
2022-10-23T08:55:01.133Z,3.85
2022-10-23T08:57:41.438Z,3.72
2022-10-23T09:00:17.868Z,6.45
2022-10-23T09:02:49.949Z,7.82
2022-10-23T09:05:51.129Z,6.85
2022-10-23T09:08:58.148Z,6.72
2022-10-23T09:11:44.008Z,4.25
2022-10-23T09:14:54.637Z,3.78
2022-10-23T09:17:46.991Z,2.10
2022-10-23T09:20:37.235Z,3.35
2022-10-23T09:23:20.897Z,5.40
2022-10-23T09:25:56.297Z,3.88
2022-10-23T09:28:32.606Z,3.25
2022-10-23T09:31:09.782Z,5.55
2022-10-23T09:33:39.530Z,17.75
2022-10-23T09:36:19.195Z,10.65
2022-10-23T09:38:48.440Z,4.82
2022-10-23T09:41:39.187Z,5.63
2022-10-23T09:44:19.754Z,2.28
2022-10-23T09:46:55.784Z,7.03
2022-10-23T09:49:33.077Z,2.67
2022-10-23T09:52:14.242Z,3.75
2022-10-23T09:54:51.467Z,2.55
2022-10-23T09:57:39.120Z,5.95
2022-10-23T10:00:28.614Z,4.43
2022-10-23T10:03:01.171Z,5.18
2022-10-23T10:05:43.111Z,2.70
2022-10-23T10:08:23.998Z,4.05
2022-10-23T10:10:58.910Z,3.08
2022-10-23T10:13:38.169Z,2.20
2022-10-23T10:16:21.674Z,4.18
2022-10-23T10:19:20.027Z,6.15
2022-10-23T10:22:27.447Z,3.72
2022-10-23T10:25:08.022Z,3.53
2022-10-23T10:27:46.432Z,2.90
2022-10-23T10:30:16.277Z,8.23
2022-10-23T10:33:08.254Z,4.22
2022-10-23T10:35:54.537Z,7.18
2022-10-23T10:38:58.386Z,4.43
2022-10-23T10:41:43.202Z,3.60
2022-10-23T10:44:20.972Z,4.18
2022-10-23T10:47:19.948Z,4.05
2022-10-23T10:50:24.248Z,3.20
2022-10-23T10:53:30.807Z,3.57
2022-10-23T10:56:06.513Z,3.05
2022-10-23T10:58:50.533Z,3.35
2022-10-23T11:01:28.636Z,4.78
2022-10-23T11:04:19.112Z,2.05
2022-10-23T11:06:52.781Z,2.00
2022-10-23T11:09:26.199Z,5.05
2022-10-23T11:11:55.772Z,4.38
2022-10-23T11:14:32.243Z,2.88
2022-10-23T11:17:14.489Z,3.03
2022-10-23T11:20:24.660Z,3.10
2022-10-23T11:23:22.049Z,4.68
2022-10-23T11:26:05.998Z,3.95
2022-10-23T11:28:37.633Z,3.90
2022-10-23T11:31:40.533Z,5.28
2022-10-23T11:34:43.173Z,2.33
2022-10-23T11:37:18.950Z,5.13
2022-10-23T11:40:08.441Z,3.13
2022-10-23T11:42:40.709Z,4.53
2022-10-23T11:45:33.529Z,2.78
2022-10-23T11:48:20.333Z,4.50
2022-10-23T11:50:49.452Z,4.88
2022-10-23T11:53:33.799Z,3.67
2022-10-23T11:56:15.485Z,5.95
2022-10-23T11:58:47.956Z,3.92
2022-10-23T12:01:45.135Z,9.32
2022-10-23T12:04:17.017Z,7.72
2022-10-23T12:06:50.831Z,3.38
2022-10-23T12:09:41.339Z,5.43
2022-10-23T12:12:12.040Z,2.65
2022-10-23T12:14:45.461Z,3.97
2022-10-23T12:17:26.314Z,5.50
2022-10-23T12:20:16.971Z,1.75
2022-10-23T12:23:05.561Z,2.05
2022-10-23T12:26:11.671Z,2.88
2022-10-23T12:29:11.971Z,10.35
2022-10-23T12:32:07.443Z,33.30
2022-10-23T12:34:50.381Z,34.03
2022-10-23T12:37:23.144Z,27.10
2022-10-23T12:39:57.645Z,15.52
2022-10-23T12:42:30.188Z,6.50
2022-10-23T12:45:08.111Z,3.17
2022-10-23T12:50:18.688Z,2.05
2022-10-23T12:52:58.615Z,1.85
2022-10-23T12:55:33.632Z,1.85
2022-10-23T12:58:07.237Z,2.60
2022-10-23T13:00:36.395Z,4.32
2022-10-23T13:03:05.819Z,3.80
2022-10-23T13:05:35.086Z,2.85
2022-10-23T13:08:04.988Z,4.05
2022-10-23T13:10:48.972Z,4.07
2022-10-23T13:13:24.796Z,5.25
2022-10-23T13:15:53.846Z,2.15
2022-10-23T13:18:22.804Z,4.90
2022-10-23T13:20:54.838Z,1.70
2022-10-23T13:23:35.846Z,2.92
2022-10-23T13:26:22.556Z,3.80
2022-10-23T13:28:52.631Z,2.33
2022-10-23T13:31:26.469Z,2.63
2022-10-23T13:34:04.416Z,2.42
2022-10-23T13:36:37.230Z,4.03
2022-10-23T13:39:13.300Z,4.22
2022-10-23T13:41:43.770Z,3.65
2022-10-23T13:44:15.395Z,2.70
2022-10-23T13:46:45.158Z,5.00
2022-10-23T13:49:14.376Z,5.13
2022-10-23T13:51:48.570Z,6.65
2022-10-23T13:54:29.372Z,6.60
2022-10-23T13:56:58.826Z,3.78
2022-10-23T13:59:27.821Z,2.58
2022-10-23T14:01:57.051Z,4.38
2022-10-23T14:04:26.193Z,3.42
2022-10-23T14:06:59.254Z,3.67
2022-10-23T14:09:28.371Z,5.70
2022-10-23T14:11:57.316Z,6.82
2022-10-23T14:14:26.421Z,3.42
2022-10-23T14:16:55.772Z,3.95
2022-10-23T14:19:24.864Z,4.40
2022-10-23T14:21:53.964Z,2.78
2022-10-23T14:24:23.044Z,2.28
2022-10-23T14:26:51.984Z,5.65
2022-10-23T14:29:24.156Z,2.90
2022-10-23T14:31:53.797Z,6.55
2022-10-23T14:34:22.762Z,2.53
2022-10-23T14:37:07.365Z,3.28
2022-10-23T14:39:37.148Z,4.65
2022-10-23T14:42:06.572Z,4.28
2022-10-23T14:44:35.902Z,3.50
2022-10-23T14:47:05.423Z,8.95
2022-10-23T14:49:36.423Z,6.35
2022-10-23T14:52:07.074Z,12.20
2022-10-23T14:54:37.207Z,13.38
2022-10-23T14:57:07.624Z,9.00
2022-10-23T14:59:36.851Z,6.20
2022-10-23T15:02:05.869Z,5.05
2022-10-23T15:04:34.923Z,3.50
2022-10-23T15:07:07.835Z,3.40
2022-10-23T15:09:37.526Z,3.72
2022-10-23T15:12:08.509Z,4.28
2022-10-23T15:14:37.587Z,3.92
2022-10-23T15:17:06.601Z,4.75
2022-10-23T15:19:35.595Z,4.13
2022-10-23T15:22:05.152Z,2.38
2022-10-23T15:24:34.193Z,3.38
2022-10-23T15:27:05.150Z,2.20
2022-10-23T15:29:34.610Z,3.05
2022-10-23T15:32:08.570Z,3.22
2022-10-23T15:34:38.489Z,3.83
2022-10-23T15:37:08.523Z,5.45
2022-10-23T15:39:39.034Z,5.30
2022-10-23T15:42:12.060Z,8.63
2022-10-23T15:44:42.246Z,6.82
2022-10-23T15:47:11.936Z,7.55
2022-10-23T15:49:45.290Z,5.63
2022-10-23T15:52:14.629Z,11.13
2022-10-23T15:54:43.701Z,8.18
2022-10-23T15:57:12.975Z,5.43
2022-10-23T15:59:42.244Z,3.13
2022-10-23T16:02:13.135Z,4.47
2022-10-23T16:04:42.309Z,6.05
2022-10-23T16:07:11.330Z,3.75
2022-10-23T16:09:40.420Z,8.77
2022-10-23T16:12:09.709Z,19.23
2022-10-23T16:14:39.692Z,59.28
2022-10-23T16:17:09.657Z,32.03
2022-10-23T16:19:38.890Z,37.58
2022-10-23T16:22:12.596Z,36.13
2022-10-23T16:24:41.712Z,10.23
2022-10-23T16:27:15.819Z,10.70
2022-10-23T16:29:45.622Z,10.77
2022-10-23T16:32:14.642Z,6.70
2022-10-23T16:34:43.748Z,10.30
2022-10-23T16:37:13.079Z,15.10
2022-10-23T16:39:52.748Z,25.20
2022-10-23T16:45:34.456Z,27.45
2022-10-23T16:48:07.484Z,28.60
2022-10-23T16:53:14.135Z,15.15
2022-10-23T16:55:43.129Z,15.63
2022-10-23T16:58:12.460Z,7.95
2022-10-23T17:00:41.680Z,6.05
2022-10-23T17:03:11.641Z,6.13
2022-10-23T17:05:40.732Z,2.78
2022-10-23T17:08:09.730Z,2.78
2022-10-23T17:10:38.800Z,6.75
2022-10-23T17:13:07.784Z,2.13
2022-10-23T17:15:36.978Z,4.47
2022-10-23T17:18:07.400Z,2.92
2022-10-23T17:20:36.475Z,3.15
2022-10-23T17:23:06.025Z,3.72
2022-10-23T17:25:35.074Z,3.40
2022-10-23T17:29:24.336Z,2.05
2022-10-23T17:31:30.285Z,5.05
2022-10-23T17:34:05.123Z,4.00
2022-10-23T17:36:37.848Z,4.80
2022-10-23T17:39:09.288Z,4.88
2022-10-23T17:41:39.015Z,3.83
2022-10-23T17:44:08.217Z,4.03
2022-10-23T17:46:37.260Z,2.67
2022-10-23T17:49:07.109Z,2.83
2022-10-23T17:51:37.233Z,4.20
2022-10-23T17:54:09.132Z,2.90
2022-10-23T17:56:39.235Z,2.65
2022-10-23T17:59:14.384Z,4.00
2022-10-23T18:01:53.273Z,5.63
2022-10-23T18:04:22.929Z,2.03
2022-10-23T18:06:54.693Z,2.67
2022-10-23T18:09:24.656Z,6.85
2022-10-23T18:11:53.743Z,3.08
2022-10-23T18:14:26.070Z,4.78
2022-10-23T18:16:57.774Z,2.05
2022-10-23T18:19:27.131Z,4.78
2022-10-23T18:21:56.479Z,7.18
2022-10-23T18:24:27.450Z,3.33
2022-10-23T18:26:56.495Z,3.90
2022-10-23T18:29:25.573Z,5.00
2022-10-23T18:31:54.914Z,4.10
2022-10-23T18:34:26.075Z,6.25
2022-10-23T18:36:56.338Z,6.93
2022-10-23T18:39:26.763Z,5.97
2022-10-23T18:41:58.584Z,6.47
2022-10-23T18:44:31.779Z,4.18
2022-10-23T18:47:01.414Z,4.70
2022-10-23T18:49:31.135Z,5.53
2022-10-23T18:52:00.136Z,8.02
2022-10-23T18:54:30.598Z,6.60
2022-10-23T18:56:59.596Z,5.07
2022-10-23T18:59:28.633Z,4.47
2022-10-23T19:01:57.698Z,4.13
2022-10-23T19:04:27.082Z,6.75
2022-10-23T19:06:56.224Z,5.07
2022-10-23T19:09:25.469Z,3.65
2022-10-23T19:11:54.463Z,7.53
2022-10-23T19:14:23.733Z,4.88
2022-10-23T19:17:04.476Z,6.53
2022-10-23T19:19:42.729Z,7.97
2022-10-23T19:22:13.584Z,6.15
2022-10-23T19:24:48.049Z,6.47
2022-10-23T19:27:17.280Z,7.78
2022-10-23T19:29:49.589Z,4.78
2022-10-23T19:32:19.716Z,4.90
2022-10-23T19:34:49.142Z,5.47
2022-10-23T19:37:18.375Z,6.82
2022-10-23T19:39:47.523Z,7.20
2022-10-23T19:42:17.002Z,9.73
2022-10-23T19:44:46.202Z,6.38
2022-10-23T19:47:15.427Z,5.88
2022-10-23T19:49:44.856Z,6.97
2022-10-23T19:52:13.991Z,5.82
2022-10-23T19:54:43.398Z,3.88
2022-10-23T19:57:13.408Z,7.38
2022-10-23T19:59:45.751Z,6.07
2022-10-23T20:02:16.164Z,4.30
2022-10-23T20:04:45.961Z,4.38
2022-10-23T20:07:16.068Z,8.98
2022-10-23T20:09:45.781Z,4.95
2022-10-23T20:12:20.806Z,5.25
2022-10-23T20:14:50.636Z,5.45
2022-10-23T20:17:19.805Z,7.97
2022-10-23T20:19:49.748Z,6.03
2022-10-23T20:22:20.333Z,7.63
2022-10-23T20:24:49.796Z,3.40
2022-10-23T20:27:19.616Z,5.07
2022-10-23T20:29:49.559Z,5.80
2022-10-23T20:32:19.418Z,5.22
2022-10-23T20:34:48.543Z,7.15
2022-10-23T20:37:17.779Z,4.30
2022-10-23T20:39:46.885Z,5.90
2022-10-23T20:42:16.044Z,5.93
2022-10-23T20:44:45.119Z,5.55
2022-10-23T20:47:14.657Z,5.03
2022-10-23T20:49:43.799Z,4.28
2022-10-23T20:52:13.028Z,4.25
2022-10-23T20:54:42.363Z,6.07
2022-10-23T20:57:17.893Z,6.28
2022-10-23T20:59:50.329Z,4.15
2022-10-23T21:02:19.629Z,3.10
2022-10-23T21:04:51.532Z,3.85
2022-10-23T21:07:21.753Z,3.65
2022-10-23T21:09:51.002Z,4.85
2022-10-23T21:12:20.203Z,8.32
2022-10-23T21:14:49.323Z,7.13
2022-10-23T21:17:19.755Z,9.05
2022-10-23T21:19:49.227Z,5.82
2022-10-23T21:22:18.548Z,2.50
2022-10-23T21:24:47.944Z,4.63
2022-10-23T21:27:18.128Z,4.07
2022-10-23T21:29:47.187Z,7.85
2022-10-23T21:32:16.497Z,3.28
2022-10-23T21:34:49.132Z,4.13
2022-10-23T21:37:18.417Z,7.60
2022-10-23T21:39:47.762Z,3.30
2022-10-23T21:42:17.100Z,7.60
2022-10-23T21:44:46.322Z,4.65
2022-10-23T21:47:15.551Z,4.72
2022-10-23T21:49:44.895Z,7.15
2022-10-23T21:52:16.232Z,5.75
2022-10-23T21:54:53.702Z,5.07
2022-10-23T21:57:22.806Z,7.63
2022-10-23T21:59:52.198Z,7.65
2022-10-23T22:02:21.606Z,6.97
2022-10-23T22:04:50.751Z,5.20
2022-10-23T22:09:59.652Z,5.50
2022-10-23T22:12:31.482Z,4.15
2022-10-23T22:15:00.590Z,4.78
2022-10-23T22:17:31.167Z,6.13
2022-10-23T22:20:00.218Z,5.20
2022-10-23T22:22:29.576Z,7.38
2022-10-23T22:24:59.562Z,4.18
2022-10-23T22:27:31.216Z,5.50
2022-10-23T22:30:00.299Z,5.03
2022-10-23T22:32:30.189Z,5.13
2022-10-23T22:34:59.359Z,4.85
2022-10-23T22:37:28.406Z,4.18
2022-10-23T22:39:57.449Z,5.57
2022-10-23T22:42:26.581Z,4.10
2022-10-23T22:44:55.557Z,3.88
2022-10-23T22:47:25.020Z,3.88
2022-10-23T22:49:54.099Z,5.65
2022-10-23T22:52:23.129Z,6.53
2022-10-23T22:54:54.045Z,5.30
2022-10-23T22:57:23.444Z,7.35
2022-10-23T22:59:52.593Z,3.40
2022-10-23T23:02:21.903Z,4.53
2022-10-23T23:04:54.359Z,3.95
2022-10-23T23:07:23.719Z,3.13
2022-10-23T23:09:52.760Z,5.53
2022-10-23T23:12:22.677Z,6.68
2022-10-23T23:14:53.537Z,3.75
2022-10-23T23:17:23.534Z,5.35
2022-10-23T23:19:52.862Z,4.75
2022-10-23T23:22:22.120Z,3.28
2022-10-23T23:24:51.312Z,6.00
2022-10-23T23:27:20.432Z,3.50
2022-10-23T23:29:50.021Z,8.48
2022-10-23T23:32:19.171Z,4.15
2022-10-23T23:34:48.615Z,3.85
2022-10-23T23:37:18.170Z,4.22
2022-10-23T23:39:47.358Z,5.93
2022-10-23T23:42:19.652Z,2.63
2022-10-23T23:44:56.031Z,2.83
2022-10-23T23:47:32.961Z,6.88
2022-10-23T23:50:05.674Z,6.43
2022-10-23T23:52:35.336Z,7.57
2022-10-23T23:55:07.188Z,9.70
2022-10-23T23:57:36.484Z,11.25
